Terminal Aerodrome Forecast
Issued by NWS Wilmington, OH

Current Version | Previous Version | Graphics & Text | Print | Product List | Glossary On
Versions: 1 2 3 4 5 6 7 8 9 10 11 12 13 14 15 16 17 18 19 20 21 22 23
160
FTUS41 KILN 262101 AAA
TAFDAY
TAF AMD
KDAY 262101Z 2621/2718 22004KT P6SM FEW050 BKN250
     FM271000 16004KT P6SM VCSH BKN060
     FM271600 21005KT P6SM SHRA VCTS OVC040CB=

USA.gov is the U.S. government's official web portal to all federal, state and local government web resources and services.